Time;durP1;ratioP1;P1;durP2;ratioP2;P2;SDS_P1;SDS_P2;PMS_P1;PMS_P2;Temp;Humidity;BMP_temperature;BMP_pressure;BME280_temperature;BME280_humidity;BME280_pressure;Samples;Min_cycle;Max_cycle;Signal;HPM_P1;HPM_P2
2023/08/22 00:00:50;;;;;;;7.17;4.10;;;17.60;99.90;;;;;;4864680;29;20212;-80
2023/08/22 00:03:16;;;;;;;8.23;5.33;;;17.60;99.90;;;;;;4863962;29;20200;-80
2023/08/22 00:05:41;;;;;;;7.37;4.97;;;17.60;99.90;;;;;;4864015;29;20233;-80
2023/08/22 00:08:07;;;;;;;6.73;4.53;;;17.50;99.90;;;;;;4863816;29;20591;-80
2023/08/22 00:10:33;;;;;;;6.27;4.47;;;17.40;99.90;;;;;;4864587;29;20673;-80
2023/08/22 00:12:59;;;;;;;6.17;5.10;;;17.40;99.90;;;;;;4863334;29;20193;-80
2023/08/22 00:15:24;;;;;;;6.17;4.73;;;17.40;99.90;;;;;;4863894;29;20786;-81
2023/08/22 00:17:50;;;;;;;8.93;4.67;;;17.40;99.90;;;;;;4864305;29;20425;-80
2023/08/22 00:20:16;;;;;;;9.80;5.20;;;17.40;99.90;;;;;;4863766;29;20533;-80
2023/08/22 00:22:42;;;;;;;9.67;5.30;;;17.50;99.90;;;;;;4864046;29;20189;-81
2023/08/22 00:25:09;;;;;;;7.80;5.40;;;17.50;99.90;;;;;;4863714;29;20849;-81
2023/08/22 00:27:35;;;;;;;8.47;5.47;;;17.60;99.90;;;;;;4863966;29;20193;-80
2023/08/22 00:30:01;;;;;;;10.10;6.07;;;17.70;99.90;;;;;;4862904;29;20477;-80
2023/08/22 00:32:26;;;;;;;16.37;6.20;;;17.70;99.90;;;;;;4863846;29;20392;-80
2023/08/22 00:34:52;;;;;;;7.87;5.90;;;17.70;99.90;;;;;;4863852;29;20629;-81
2023/08/22 00:37:18;;;;;;;7.13;5.27;;;17.70;99.90;;;;;;4863690;29;20195;-80
2023/08/22 00:39:44;;;;;;;9.20;5.23;;;17.70;99.90;;;;;;4864067;29;20644;-80
2023/08/22 00:42:10;;;;;;;8.13;6.20;;;17.70;99.90;;;;;;4863657;29;20443;-80
2023/08/22 00:44:35;;;;;;;10.20;6.33;;;17.70;99.90;;;;;;4863517;29;20198;-80
2023/08/22 00:47:02;;;;;;;7.77;5.20;;;17.80;99.90;;;;;;4864117;29;20227;-80
2023/08/22 00:49:28;;;;;;;5.83;5.20;;;17.90;99.90;;;;;;4863305;29;20196;-80
2023/08/22 00:51:56;;;;;;;7.00;5.60;;;17.80;99.90;;;;;;4862447;29;20944;-80
2023/08/22 00:54:23;;;;;;;7.60;5.07;;;17.80;99.90;;;;;;4863320;29;20781;-80
2023/08/22 00:56:49;;;;;;;11.60;6.23;;;17.70;99.90;;;;;;4863573;29;20432;-80
2023/08/22 00:59:16;;;;;;;10.43;6.00;;;17.70;99.90;;;;;;4863131;29;20421;-80
2023/08/22 01:01:41;;;;;;;11.83;5.30;;;17.80;99.90;;;;;;4863252;29;20490;-80
2023/08/22 01:04:07;;;;;;;9.63;5.77;;;17.80;99.90;;;;;;4863243;29;20491;-80
2023/08/22 01:06:42;;;;;;;9.90;5.23;;;17.80;99.90;;;;;;4863065;29;20580;-80
2023/08/22 01:09:27;;;;;;;9.83;4.93;;;17.70;99.90;;;;;;4863031;29;20239;-81
2023/08/22 01:11:58;;;;;;;8.10;5.47;;;17.70;99.90;;;;;;4863240;29;20406;-80
2023/08/22 01:14:26;;;;;;;6.37;5.00;;;17.70;99.90;;;;;;4862734;29;20390;-80
2023/08/22 01:16:52;;;;;;;13.43;5.40;;;17.70;99.90;;;;;;4863085;29;20411;-80
2023/08/22 01:19:19;;;;;;;8.77;4.47;;;17.70;99.90;;;;;;4862871;29;20433;-80
2023/08/22 01:21:52;;;;;;;10.77;5.43;;;17.60;99.90;;;;;;4863494;29;20208;-80
2023/08/22 01:24:17;;;;;;;10.87;6.20;;;17.60;99.90;;;;;;4862819;29;20428;-80
2023/08/22 01:26:45;;;;;;;13.17;5.80;;;17.50;99.90;;;;;;4863550;29;20417;-80
2023/08/22 01:29:14;;;;;;;11.23;5.50;;;17.40;99.90;;;;;;4861650;29;20634;-81
2023/08/22 01:32:04;;;;;;;10.03;6.37;;;17.40;99.90;;;;;;4863044;29;20399;-80
2023/08/22 01:34:32;;;;;;;8.57;5.87;;;17.30;99.90;;;;;;4862889;29;20392;-80
2023/08/22 01:36:59;;;;;;;7.70;5.50;;;17.30;99.90;;;;;;4862588;29;20388;-80
2023/08/22 01:39:30;;;;;;;13.90;6.23;;;17.30;99.90;;;;;;4862490;29;20897;-80
2023/08/22 01:41:57;;;;;;;9.07;6.03;;;17.20;99.90;;;;;;4862340;29;20439;-80
2023/08/22 01:44:24;;;;;;;11.53;6.40;;;17.20;99.90;;;;;;4862590;29;20425;-80
2023/08/22 01:46:49;;;;;;;12.40;7.40;;;17.10;99.90;;;;;;4862901;29;20425;-80
2023/08/22 01:49:15;;;;;;;10.13;6.40;;;17.10;99.90;;;;;;4862479;29;20403;-80
2023/08/22 01:51:41;;;;;;;7.87;6.40;;;17.20;99.90;;;;;;4862590;29;20193;-80
2023/08/22 01:54:06;;;;;;;6.33;5.50;;;17.10;99.90;;;;;;4862540;29;20188;-80
2023/08/22 01:56:32;;;;;;;12.57;6.33;;;17.00;99.90;;;;;;4862142;29;20184;-80
2023/08/22 01:58:58;;;;;;;7.67;6.23;;;16.90;99.90;;;;;;4862363;29;20184;-80
2023/08/22 02:01:24;;;;;;;10.10;6.00;;;16.90;99.90;;;;;;4862195;29;20472;-80
2023/08/22 02:03:49;;;;;;;9.10;5.63;;;16.90;99.90;;;;;;4862283;29;20200;-80
2023/08/22 02:06:15;;;;;;;10.47;6.53;;;16.90;99.90;;;;;;4862340;29;20180;-80
2023/08/22 02:08:41;;;;;;;5.80;5.20;;;16.80;99.90;;;;;;4862576;29;20240;-80
2023/08/22 02:11:07;;;;;;;9.60;6.10;;;16.80;99.90;;;;;;4862489;29;20399;-80
2023/08/22 02:13:33;;;;;;;9.63;6.50;;;16.80;99.90;;;;;;4862340;29;20215;-80
2023/08/22 02:15:59;;;;;;;7.67;6.43;;;16.80;99.90;;;;;;4862616;29;20449;-80
2023/08/22 02:18:24;;;;;;;11.30;7.07;;;16.80;99.90;;;;;;4862255;29;20533;-80
2023/08/22 02:20:55;;;;;;;9.73;6.80;;;16.80;99.90;;;;;;4862337;29;20484;-80
2023/08/22 02:23:21;;;;;;;9.80;6.30;;;16.80;99.90;;;;;;4862113;29;20537;-81
2023/08/22 02:25:47;;;;;;;7.77;5.90;;;16.80;99.90;;;;;;4862163;29;20429;-80
2023/08/22 02:28:13;;;;;;;18.13;6.70;;;16.80;99.90;;;;;;4861925;29;20206;-80
2023/08/22 02:30:38;;;;;;;12.83;7.00;;;16.80;99.90;;;;;;4862998;29;20225;-80
2023/08/22 02:33:04;;;;;;;7.23;5.70;;;16.80;99.90;;;;;;4862132;29;20437;-80
2023/08/22 02:35:31;;;;;;;20.43;7.10;;;16.80;99.90;;;;;;4861961;29;20224;-80
2023/08/22 02:37:56;;;;;;;13.63;6.73;;;16.90;99.90;;;;;;4862357;29;20448;-80
2023/08/22 02:40:22;;;;;;;10.67;7.27;;;16.90;99.90;;;;;;4862120;29;20878;-80
2023/08/22 02:42:48;;;;;;;9.93;7.50;;;16.80;99.90;;;;;;4862052;29;20222;-80
2023/08/22 02:45:13;;;;;;;16.93;6.80;;;16.80;99.90;;;;;;4862018;29;20578;-81
2023/08/22 02:47:39;;;;;;;9.40;6.10;;;16.80;99.90;;;;;;4862127;29;20244;-80
2023/08/22 02:50:06;;;;;;;12.93;6.50;;;16.80;99.90;;;;;;4862370;29;20217;-80
2023/08/22 02:52:32;;;;;;;11.33;7.10;;;16.70;99.90;;;;;;4862043;29;20232;-80
2023/08/22 02:54:57;;;;;;;14.03;6.90;;;16.60;99.90;;;;;;4865307;29;20552;-80
2023/08/22 02:57:23;;;;;;;11.47;7.30;;;16.60;99.90;;;;;;4865384;29;20324;-80
2023/08/22 02:59:48;;;;;;;14.67;8.07;;;16.60;99.90;;;;;;4865940;29;20216;-80
2023/08/22 03:02:14;;;;;;;8.20;6.93;;;16.50;99.90;;;;;;4865276;29;20208;-81
2023/08/22 03:04:40;;;;;;;13.67;7.03;;;16.50;99.90;;;;;;4865601;29;20192;-80
2023/08/22 03:07:05;;;;;;;12.80;7.87;;;16.50;99.90;;;;;;4865438;29;20664;-80
2023/08/22 03:09:32;;;;;;;12.60;6.90;;;16.50;99.90;;;;;;4865536;29;20397;-80
2023/08/22 03:11:57;;;;;;;9.43;6.97;;;16.40;99.90;;;;;;4865517;29;20192;-80
2023/08/22 03:14:24;;;;;;;9.50;6.93;;;16.40;99.90;;;;;;4865145;29;20750;-80
2023/08/22 03:16:50;;;;;;;15.93;8.23;;;16.40;99.90;;;;;;4865332;29;20184;-80
2023/08/22 03:19:15;;;;;;;7.97;5.70;;;16.30;99.90;;;;;;4865232;29;20520;-80
2023/08/22 03:21:41;;;;;;;13.33;7.00;;;16.30;99.90;;;;;;4865393;29;20574;-80
2023/08/22 03:24:07;;;;;;;11.40;7.83;;;16.20;99.90;;;;;;4865201;29;20188;-80
2023/08/22 03:26:32;;;;;;;11.27;7.80;;;16.20;99.90;;;;;;4864974;29;20644;-80
2023/08/22 03:28:58;;;;;;;14.17;9.00;;;16.30;99.90;;;;;;4865306;29;20275;-80
2023/08/22 03:31:25;;;;;;;15.80;9.03;;;16.40;99.90;;;;;;4864818;29;20195;-80
2023/08/22 03:33:51;;;;;;;11.60;7.50;;;16.30;99.90;;;;;;4864867;29;20204;-80
2023/08/22 03:36:17;;;;;;;10.30;7.73;;;16.20;99.90;;;;;;4865090;29;20399;-80
2023/08/22 03:38:43;;;;;;;14.37;8.90;;;16.20;99.90;;;;;;4864828;29;20404;-80
2023/08/22 03:41:09;;;;;;;13.30;8.47;;;16.20;99.90;;;;;;4864950;29;20219;-80
2023/08/22 03:43:34;;;;;;;12.87;8.80;;;16.10;99.90;;;;;;4863467;29;20476;-80
2023/08/22 03:46:00;;;;;;;10.87;7.67;;;16.10;99.90;;;;;;4864588;29;20709;-80
2023/08/22 03:48:25;;;;;;;11.70;8.07;;;16.10;99.90;;;;;;4864151;29;20207;-80
2023/08/22 03:50:51;;;;;;;9.70;7.63;;;16.10;99.90;;;;;;4864632;29;20200;-80
2023/08/22 03:53:16;;;;;;;17.60;9.23;;;16.10;99.90;;;;;;4864468;29;20192;-81
2023/08/22 03:55:43;;;;;;;14.20;8.80;;;16.10;99.90;;;;;;4864831;29;20192;-80
2023/08/22 03:58:10;;;;;;;19.47;8.40;;;16.00;99.90;;;;;;4864673;29;20192;-80
2023/08/22 04:00:36;;;;;;;11.63;8.77;;;16.00;99.90;;;;;;4864638;29;20469;-80
2023/08/22 04:03:02;;;;;;;21.17;9.60;;;16.00;99.90;;;;;;4864633;29;20456;-80
2023/08/22 04:05:27;;;;;;;10.77;7.90;;;15.90;99.90;;;;;;4863969;29;20192;-80
2023/08/22 04:07:53;;;;;;;11.03;8.57;;;15.90;99.90;;;;;;4864312;29;20477;-80
2023/08/22 04:10:19;;;;;;;15.83;8.10;;;15.80;99.90;;;;;;4864519;29;20169;-81
2023/08/22 04:12:45;;;;;;;20.40;9.13;;;15.80;99.90;;;;;;4864383;29;20176;-80
2023/08/22 04:15:11;;;;;;;17.03;8.50;;;15.70;99.90;;;;;;4864591;29;20411;-80
2023/08/22 04:17:38;;;;;;;12.97;8.40;;;15.70;99.90;;;;;;4863954;29;20255;-80
2023/08/22 04:20:07;;;;;;;14.10;8.50;;;15.70;99.90;;;;;;4864340;29;20443;-80
2023/08/22 04:22:32;;;;;;;10.10;7.80;;;15.70;99.90;;;;;;4864117;29;20411;-80
2023/08/22 04:24:58;;;;;;;13.33;8.47;;;15.70;99.90;;;;;;4862846;29;20395;-80
2023/08/22 04:27:23;;;;;;;12.77;8.43;;;15.70;99.90;;;;;;4863830;29;20184;-80
2023/08/22 04:29:49;;;;;;;13.60;8.37;;;15.70;99.90;;;;;;4863830;29;20228;-80
2023/08/22 04:32:14;;;;;;;12.87;8.40;;;15.60;99.90;;;;;;4863831;29;20705;-80
2023/08/22 04:34:40;;;;;;;13.60;8.70;;;15.70;99.90;;;;;;4863599;29;20191;-80
2023/08/22 04:37:05;;;;;;;18.40;10.00;;;15.70;99.90;;;;;;4863273;29;20542;-80
2023/08/22 04:39:31;;;;;;;13.50;9.23;;;15.60;99.90;;;;;;4863844;29;20184;-80
2023/08/22 04:41:57;;;;;;;16.90;9.23;;;15.60;99.90;;;;;;4862663;29;20212;-80
2023/08/22 04:44:22;;;;;;;11.27;8.83;;;15.70;99.90;;;;;;4863892;29;20196;-80
2023/08/22 04:46:48;;;;;;;9.90;7.87;;;15.70;99.90;;;;;;4863421;29;20531;-80
2023/08/22 04:49:13;;;;;;;14.40;9.57;;;15.70;99.90;;;;;;4864078;29;20196;-80
2023/08/22 04:51:39;;;;;;;11.00;8.47;;;15.60;99.90;;;;;;4863667;29;20188;-80
2023/08/22 04:54:04;;;;;;;20.63;9.53;;;15.70;99.90;;;;;;4863546;29;20714;-80
2023/08/22 04:56:30;;;;;;;15.53;9.90;;;15.70;99.90;;;;;;4863207;29;20570;-80
2023/08/22 04:58:56;;;;;;;23.20;11.00;;;15.70;99.90;;;;;;4863567;29;20183;-80
2023/08/22 05:01:21;;;;;;;19.33;10.90;;;15.80;99.90;;;;;;4863101;29;20211;-81
2023/08/22 05:03:47;;;;;;;20.93;11.07;;;15.80;99.90;;;;;;4863954;29;20216;-80
2023/08/22 05:06:12;;;;;;;16.57;11.67;;;15.80;99.90;;;;;;4863503;29;20286;-80
2023/08/22 05:08:38;;;;;;;17.80;11.43;;;15.80;99.90;;;;;;4863466;29;20596;-80
2023/08/22 05:11:04;;;;;;;15.13;9.90;;;15.80;99.90;;;;;;4863542;29;20309;-80
2023/08/22 05:13:29;;;;;;;21.27;12.20;;;15.90;99.90;;;;;;4863251;29;20184;-80
2023/08/22 05:15:55;;;;;;;24.63;11.50;;;15.90;99.90;;;;;;4863009;29;20185;-80
2023/08/22 05:18:20;;;;;;;15.67;11.20;;;15.90;99.90;;;;;;4863516;29;20196;-81
2023/08/22 05:20:51;;;;;;;15.07;11.07;;;15.90;99.90;;;;;;4863249;29;20212;-80
2023/08/22 05:23:16;;;;;;;22.73;13.20;;;15.90;99.90;;;;;;4863207;29;20308;-80
2023/08/22 05:25:42;;;;;;;17.87;11.00;;;16.00;99.90;;;;;;4862749;29;20485;-80
2023/08/22 05:28:08;;;;;;;23.23;11.60;;;16.00;99.90;;;;;;4863573;29;20184;-80
2023/08/22 05:30:36;;;;;;;14.30;10.17;;;16.00;99.90;;;;;;4862681;29;20184;-80
2023/08/22 05:33:02;;;;;;;15.50;10.57;;;16.10;99.90;;;;;;4863076;29;20482;-80
2023/08/22 05:35:28;;;;;;;17.53;11.97;;;16.10;99.90;;;;;;4863154;29;20403;-80
2023/08/22 05:37:54;;;;;;;16.70;12.17;;;16.10;99.90;;;;;;4863141;29;20395;-80
2023/08/22 05:40:19;;;;;;;18.03;14.00;;;16.20;99.90;;;;;;4862647;29;20283;-80
2023/08/22 05:42:45;;;;;;;19.17;14.27;;;16.20;99.90;;;;;;4863148;29;20551;-82
2023/08/22 05:45:10;;;;;;;18.67;14.23;;;16.30;99.90;;;;;;4862700;29;20196;-81
2023/08/22 05:47:36;;;;;;;23.60;15.87;;;16.20;99.90;;;;;;4862563;29;20190;-82
2023/08/22 05:50:03;;;;;;;19.60;16.07;;;16.30;99.90;;;;;;4862915;29;20275;-80
2023/08/22 05:52:30;;;;;;;23.77;16.83;;;16.40;99.90;;;;;;4862626;29;20661;-80
2023/08/22 05:54:56;;;;;;;18.57;16.00;;;16.40;99.90;;;;;;4863024;29;20504;-80
2023/08/22 05:57:22;;;;;;;27.77;18.50;;;16.50;99.90;;;;;;4863377;29;20426;-80
2023/08/22 05:59:49;;;;;;;27.17;19.60;;;16.60;99.90;;;;;;4862645;29;20425;-80
2023/08/22 06:02:15;;;;;;;22.03;18.07;;;16.80;99.90;;;;;;4862598;29;20476;-80
2023/08/22 06:04:40;;;;;;;21.33;19.10;;;17.00;99.90;;;;;;4862863;29;20429;-80
2023/08/22 06:07:06;;;;;;;27.20;20.93;;;17.10;99.90;;;;;;4863036;29;20421;-80
2023/08/22 06:09:32;;;;;;;23.00;19.90;;;17.20;99.90;;;;;;4862259;29;20235;-80
2023/08/22 06:11:57;;;;;;;26.33;20.37;;;17.30;99.90;;;;;;4862681;29;20186;-80
2023/08/22 06:14:23;;;;;;;23.80;20.67;;;17.50;99.90;;;;;;4862546;29;20206;-84
2023/08/22 06:16:49;;;;;;;24.47;20.03;;;17.60;99.90;;;;;;4862860;29;20263;-80
2023/08/22 06:19:14;;;;;;;21.70;19.03;;;17.60;99.90;;;;;;4862867;29;20709;-80
2023/08/22 06:21:40;;;;;;;26.60;18.43;;;17.70;99.90;;;;;;4862401;29;20248;-80
2023/08/22 06:24:06;;;;;;;20.80;18.70;;;17.80;99.90;;;;;;4862639;29;20548;-80
2023/08/22 06:26:31;;;;;;;25.03;17.60;;;17.90;99.90;;;;;;4862667;29;20180;-80
2023/08/22 06:28:57;;;;;;;19.83;17.83;;;18.00;99.90;;;;;;4864292;29;20489;-80
2023/08/22 06:31:23;;;;;;;20.93;17.27;;;18.10;99.90;;;;;;4865932;29;20200;-80
2023/08/22 06:33:49;;;;;;;21.17;16.40;;;18.10;99.90;;;;;;4865879;29;20401;-80
2023/08/22 06:36:15;;;;;;;22.53;17.00;;;18.20;99.90;;;;;;4866258;29;20270;-80
2023/08/22 06:38:40;;;;;;;22.00;16.07;;;18.20;99.90;;;;;;4865891;29;20180;-80
2023/08/22 06:41:07;;;;;;;20.70;16.10;;;18.30;99.90;;;;;;4865832;29;20260;-80
2023/08/22 06:43:33;;;;;;;28.17;17.30;;;18.30;99.90;;;;;;4866109;29;20347;-80
2023/08/22 06:45:59;;;;;;;22.33;15.57;;;18.30;99.90;;;;;;4865542;29;20496;-80
2023/08/22 06:48:26;;;;;;;19.60;17.17;;;18.40;99.90;;;;;;4865744;29;20425;-80
2023/08/22 06:50:52;;;;;;;17.83;15.93;;;18.50;99.90;;;;;;4866132;29;20493;-80
2023/08/22 06:53:19;;;;;;;18.57;15.70;;;18.60;99.90;;;;;;4866049;29;20462;-80
2023/08/22 06:55:48;;;;;;;20.10;16.73;;;18.70;99.90;;;;;;4865619;29;20267;-80
2023/08/22 06:58:13;;;;;;;17.70;15.97;;;18.80;99.90;;;;;;4865882;29;20569;-80
2023/08/22 07:00:39;;;;;;;17.00;15.20;;;18.80;99.90;;;;;;4865698;29;20903;-80
2023/08/22 07:03:05;;;;;;;18.50;15.13;;;18.90;99.90;;;;;;4864426;29;20212;-80
2023/08/22 07:05:30;;;;;;;16.43;14.73;;;19.00;99.90;;;;;;4865082;29;20188;-80
2023/08/22 07:07:56;;;;;;;19.93;15.73;;;19.10;99.90;;;;;;4865476;29;20232;-80
2023/08/22 07:10:22;;;;;;;17.50;15.50;;;19.00;99.90;;;;;;4865641;29;20208;-80
2023/08/22 07:12:47;;;;;;;25.57;17.13;;;19.00;99.90;;;;;;4865356;29;20192;-80
2023/08/22 07:15:13;;;;;;;17.93;15.90;;;19.20;99.90;;;;;;4865540;29;20188;-80
2023/08/22 07:17:39;;;;;;;18.43;16.57;;;19.30;99.90;;;;;;4864907;29;20275;-80
2023/08/22 07:20:05;;;;;;;19.40;17.40;;;19.40;99.90;;;;;;4865675;29;20764;-80
2023/08/22 07:22:33;;;;;;;18.47;16.57;;;19.60;99.90;;;;;;4865019;29;20669;-80
2023/08/22 07:24:58;;;;;;;18.77;15.83;;;19.80;99.90;;;;;;4865397;29;20457;-80
2023/08/22 07:27:24;;;;;;;18.70;15.70;;;19.90;99.90;;;;;;4865024;29;20449;-79
2023/08/22 07:29:50;;;;;;;21.63;16.23;;;20.00;99.90;;;;;;4865393;29;20188;-80
2023/08/22 07:32:18;;;;;;;20.70;13.90;;;20.10;99.90;;;;;;4865177;29;20192;-80
2023/08/22 07:34:45;;;;;;;19.00;15.40;;;20.30;99.90;;;;;;4864784;29;20324;-80
2023/08/22 07:37:10;;;;;;;16.97;15.20;;;20.40;99.90;;;;;;4864834;29;20387;-80
2023/08/22 07:39:36;;;;;;;17.60;15.80;;;20.70;99.90;;;;;;4863565;29;20428;-80
2023/08/22 07:42:01;;;;;;;15.67;14.07;;;20.80;99.90;;;;;;4864872;29;20264;-80
2023/08/22 07:44:27;;;;;;;15.83;14.23;;;20.80;99.90;;;;;;4864410;29;20335;-80
2023/08/22 07:46:52;;;;;;;21.93;15.20;;;20.80;99.90;;;;;;4864188;29;20203;-80
2023/08/22 07:49:18;;;;;;;15.60;13.97;;;20.80;99.90;;;;;;4864979;29;20200;-80
2023/08/22 07:51:43;;;;;;;21.90;14.27;;;21.00;99.90;;;;;;4864326;29;20552;-80
2023/08/22 07:54:09;;;;;;;16.80;15.03;;;21.20;99.90;;;;;;4864550;29;20239;-80
2023/08/22 07:56:41;;;;;;;17.23;14.83;;;21.20;99.90;;;;;;4864013;29;20236;-92
2023/08/22 07:59:09;;;;;;;16.53;14.83;;;21.20;99.90;;;;;;4862908;29;20269;-92
2023/08/22 08:01:35;;;;;;;16.77;14.33;;;21.20;99.90;;;;;;4862587;29;20443;-92
2023/08/22 08:04:02;;;;;;;17.27;14.17;;;21.30;99.90;;;;;;4863864;29;20452;-92
2023/08/22 08:06:33;;;;;;;17.13;13.70;;;21.10;99.90;;;;;;4862524;29;20222;-92
2023/08/22 08:08:58;;;;;;;19.33;14.87;;;21.30;99.90;;;;;;4862632;29;20868;-92
2023/08/22 08:11:24;;;;;;;17.77;13.77;;;21.60;99.90;;;;;;4862298;29;20450;-92
2023/08/22 08:13:50;;;;;;;17.83;13.33;;;21.70;99.90;;;;;;4862083;29;20215;-92
2023/08/22 08:16:16;;;;;;;17.40;14.00;;;21.80;99.90;;;;;;4866049;29;20204;-91
2023/08/22 08:18:42;;;;;;;20.33;14.10;;;21.80;99.90;;;;;;4845432;29;20189;-91
2023/08/22 08:21:07;;;;;;;16.70;12.60;;;22.00;99.90;;;;;;4863279;29;20464;-92
2023/08/22 08:23:33;;;;;;;16.43;12.40;;;22.20;99.90;;;;;;4866650;29;20180;-92
2023/08/22 08:25:59;;;;;;;13.97;12.57;;;22.60;99.90;;;;;;4880887;29;20187;-92
2023/08/22 08:28:25;;;;;;;14.20;12.80;;;22.90;99.90;;;;;;4880835;29;20428;-92
2023/08/22 08:30:50;;;;;;;14.03;11.70;;;23.00;99.90;;;;;;4880549;29;20191;-91
2023/08/22 08:33:16;;;;;;;12.90;11.40;;;22.80;99.90;;;;;;4880763;29;20195;-92
2023/08/22 08:35:42;;;;;;;13.87;12.20;;;23.20;99.90;;;;;;4880135;29;20667;-91
2023/08/22 08:38:07;;;;;;;14.03;12.10;;;23.50;99.90;;;;;;4880573;29;20186;-91
2023/08/22 08:40:37;;;;;;;14.90;12.37;;;24.00;99.90;;;;;;4880707;29;20187;-92
2023/08/22 08:43:05;;;;;;;13.53;12.00;;;23.90;99.90;;;;;;4881696;29;20600;-92
2023/08/22 08:45:33;;;;;;;13.17;11.77;;;23.80;99.90;;;;;;4881180;29;20412;-92
2023/08/22 08:48:02;;;;;;;14.20;11.53;;;23.80;99.90;;;;;;4880634;29;20429;-91
2023/08/22 08:50:30;;;;;;;14.50;11.00;;;24.10;99.90;;;;;;4865774;29;20837;-92
2023/08/22 08:52:56;;;;;;;14.83;11.90;;;24.00;99.90;;;;;;4857264;29;20441;-91
2023/08/22 08:55:21;;;;;;;12.60;11.17;;;24.60;99.90;;;;;;4862827;29;20994;-91
2023/08/22 08:57:47;;;;;;;14.60;10.43;;;24.90;99.90;;;;;;4861196;29;20252;-92
2023/08/22 09:00:19;;;;;;;12.07;8.53;;;24.70;99.90;;;;;;4856627;29;20188;-92
2023/08/22 09:02:45;;;;;;;11.80;8.40;;;25.00;99.90;;;;;;4853014;29;20527;-91
2023/08/22 09:05:11;;;;;;;12.03;7.93;;;25.30;99.90;;;;;;4861759;29;20504;-92
2023/08/22 09:07:38;;;;;;;9.30;8.13;;;25.70;99.90;;;;;;4862018;29;20453;-92
2023/08/22 09:10:05;;;;;;;16.97;6.97;;;25.70;99.90;;;;;;4861526;29;20552;-92
2023/08/22 09:12:35;;;;;;;12.13;6.90;;;25.70;99.90;;;;;;4861174;29;20873;-92
2023/08/22 09:15:02;;;;;;;9.53;6.67;;;25.70;99.90;;;;;;4861288;29;20429;-92
2023/08/22 09:17:29;;;;;;;12.33;7.07;;;26.10;99.90;;;;;;4861236;29;20433;-92
2023/08/22 09:19:55;;;;;;;13.37;7.00;;;26.80;99.90;;;;;;4862113;29;20477;-93
2023/08/22 09:22:29;;;;;;;9.30;6.43;;;26.30;99.90;;;;;;4860654;29;20500;-93
2023/08/22 09:24:55;;;;;;;8.87;6.03;;;26.50;99.90;;;;;;4859059;29;20809;-91
2023/08/22 09:27:24;;;;;;;8.23;5.80;;;26.10;99.90;;;;;;4860802;29;20436;-91
2023/08/22 09:29:50;;;;;;;9.10;7.40;;;26.20;99.90;;;;;;4862357;29;20185;-92
2023/08/22 09:32:15;;;;;;;7.90;5.70;;;26.90;99.90;;;;;;4860877;29;20433;-93
2023/08/22 09:35:06;;;;;;;9.30;5.27;;;26.60;99.90;;;;;;4860403;29;20298;-92
2023/08/22 09:37:33;;;;;;;6.80;4.97;;;27.10;99.90;;;;;;4862135;29;20165;-88
2023/08/22 09:40:07;;;;;;;8.67;4.10;;;27.10;99.90;;;;;;4861665;29;20422;-92
2023/08/22 09:42:38;;;;;;;6.20;4.10;;;27.10;99.90;;;;;;4861538;29;20548;-90
2023/08/22 09:45:05;;;;;;;6.27;4.37;;;26.60;99.90;;;;;;4861535;29;20410;-92
2023/08/22 09:47:31;;;;;;;4.87;3.70;;;26.50;99.90;;;;;;4860345;29;20930;-92
2023/08/22 09:50:04;;;;;;;7.03;3.57;;;26.70;99.90;;;;;;4860152;29;20472;-92
2023/08/22 09:52:30;;;;;;;7.97;4.40;;;27.00;99.90;;;;;;4861080;29;20464;-93
2023/08/22 09:54:57;;;;;;;6.23;3.97;;;26.90;99.90;;;;;;4860870;29;20997;-92
2023/08/22 09:57:26;;;;;;;8.43;3.80;;;26.70;99.90;;;;;;4861750;29;20489;-93
2023/08/22 09:59:51;;;;;;;5.60;3.17;;;26.90;99.90;;;;;;4862411;29;20421;-91
2023/08/22 10:02:22;;;;;;;4.63;2.80;;;27.40;99.90;;;;;;4861714;29;20477;-93
2023/08/22 10:04:47;;;;;;;4.70;3.63;;;27.60;99.90;;;;;;4860657;29;20206;-93
2023/08/22 10:07:13;;;;;;;6.40;3.40;;;27.60;99.90;;;;;;4860524;29;20421;-92
2023/08/22 10:09:40;;;;;;;5.47;3.57;;;27.80;99.90;;;;;;4861756;29;20235;-92
2023/08/22 10:12:20;;;;;;;6.07;3.33;;;27.70;99.90;;;;;;4860784;29;20188;-93
2023/08/22 10:15:00;;;;;;;5.23;3.30;;;27.30;99.90;;;;;;4861049;29;20429;-94
2023/08/22 10:17:44;;;;;;;4.63;4.00;;;27.70;99.90;;;;;;4860974;29;20448;-92
2023/08/22 10:20:18;;;;;;;7.17;3.50;;;28.00;99.90;;;;;;4860636;29;20440;-93
2023/08/22 10:22:44;;;;;;;4.20;2.70;;;28.70;99.90;;;;;;4861129;29;20523;-90
2023/08/22 10:25:09;;;;;;;6.60;3.37;;;28.80;99.90;;;;;;4862331;29;20449;-91
2023/08/22 10:27:42;;;;;;;6.43;2.97;;;28.20;99.90;;;;;;4862602;29;20198;-89
2023/08/22 10:30:20;;;;;;;7.23;2.93;;;27.90;99.90;;;;;;4861901;29;20551;-93
2023/08/22 10:33:06;;;;;;;6.43;3.50;;;27.80;99.90;;;;;;4861619;29;20428;-92
2023/08/22 10:35:34;;;;;;;5.53;2.83;;;27.80;99.90;;;;;;4862941;29;20428;-92
2023/08/22 10:38:03;;;;;;;3.40;2.87;;;27.90;99.90;;;;;;4862537;29;20515;-93
2023/08/22 10:40:34;;;;;;;7.37;3.20;;;27.90;99.90;;;;;;4864058;29;20504;-93
2023/08/22 10:43:11;;;;;;;4.37;3.87;;;27.80;99.90;;;;;;4862873;29;20432;-91
2023/08/22 10:45:49;;;;;;;8.53;3.10;;;27.70;99.90;;;;;;4860987;29;20432;-92
2023/08/22 10:48:17;;;;;;;6.80;2.83;;;27.70;99.90;;;;;;4863132;29;20436;-92
2023/08/22 10:50:45;;;;;;;6.43;3.70;;;27.90;99.90;;;;;;4860467;29;20433;-93
2023/08/22 10:53:18;;;;;;;3.77;2.93;;;28.00;99.90;;;;;;4859718;29;20433;-92
2023/08/22 10:55:48;;;;;;;5.03;2.93;;;27.80;99.90;;;;;;4861905;29;20825;-93
2023/08/22 10:58:36;;;;;;;4.10;2.30;;;27.60;99.90;;;;;;4860083;29;20504;-93
2023/08/22 11:01:06;;;;;;;8.00;2.80;;;27.20;99.90;;;;;;4860133;29;20520;-81
2023/08/22 11:03:32;;;;;;;6.83;2.43;;;27.10;99.90;;;;;;4860807;29;20816;-81
2023/08/22 11:05:58;;;;;;;6.07;3.13;;;27.20;99.90;;;;;;4860702;29;20808;-81
2023/08/22 11:08:23;;;;;;;6.37;3.57;;;27.30;99.90;;;;;;4860820;29;20502;-81
2023/08/22 11:10:50;;;;;;;4.60;3.03;;;27.40;99.90;;;;;;4860616;29;20204;-81
2023/08/22 11:13:16;;;;;;;6.30;3.23;;;27.20;99.90;;;;;;4860451;29;20237;-80
2023/08/22 11:15:42;;;;;;;8.23;3.20;;;27.00;99.90;;;;;;4862853;29;20414;-83
2023/08/22 11:18:07;;;;;;;3.10;2.77;;;26.90;99.90;;;;;;4862880;29;20715;-80
2023/08/22 11:20:33;;;;;;;6.57;2.57;;;26.70;99.90;;;;;;4864065;29;20505;-80
2023/08/22 11:23:00;;;;;;;5.50;2.87;;;26.70;99.90;;;;;;4864182;29;20223;-79
2023/08/22 11:25:26;;;;;;;13.73;3.20;;;26.80;99.90;;;;;;4864133;29;20528;-80
2023/08/22 11:27:52;;;;;;;8.90;3.23;;;26.90;99.90;;;;;;4863955;29;20424;-80
2023/08/22 11:30:19;;;;;;;6.87;3.40;;;27.00;99.90;;;;;;4864057;29;20184;-79
2023/08/22 11:32:45;;;;;;;6.87;2.80;;;27.20;99.90;;;;;;4863828;29;20424;-80
2023/08/22 11:35:11;;;;;;;6.73;3.17;;;27.10;99.90;;;;;;4864267;29;20425;-80
2023/08/22 11:37:39;;;;;;;6.03;3.10;;;27.10;99.90;;;;;;4863850;29;20461;-80
2023/08/22 11:40:09;;;;;;;6.80;3.73;;;27.50;99.90;;;;;;4863619;29;20188;-80
2023/08/22 11:42:35;;;;;;;4.60;3.07;;;27.50;99.90;;;;;;4863913;29;20472;-80
2023/08/22 11:45:08;;;;;;;5.20;3.40;;;27.80;99.90;;;;;;4863673;29;20425;-80
2023/08/22 11:47:55;;;;;;;5.03;2.93;;;27.80;99.90;;;;;;4863757;29;20421;-80
2023/08/22 11:50:28;;;;;;;8.97;3.43;;;27.70;99.90;;;;;;4863666;29;20474;-80
2023/08/22 11:52:58;;;;;;;7.17;3.30;;;27.60;99.90;;;;;;4863511;29;20501;-80
2023/08/22 11:55:26;;;;;;;5.10;3.30;;;27.90;99.90;;;;;;4863590;29;20515;-80
2023/08/22 11:57:59;;;;;;;5.57;2.93;;;28.20;99.90;;;;;;4863457;29;20433;-81
2023/08/22 12:00:29;;;;;;;8.70;3.50;;;28.70;99.90;;;;;;4863179;29;20919;-80
2023/08/22 12:02:57;;;;;;;8.70;3.67;;;28.70;99.90;;;;;;4863360;29;20508;-81
2023/08/22 12:05:41;;;;;;;5.73;2.63;;;29.00;99.90;;;;;;4863441;29;20417;-80
2023/08/22 12:08:06;;;;;;;6.40;3.87;;;29.50;99.90;;;;;;4863114;29;20556;-80
2023/08/22 12:10:42;;;;;;;10.03;4.30;;;29.40;99.90;;;;;;4863694;29;20565;-84
2023/08/22 12:13:09;;;;;;;8.93;4.60;;;29.50;99.90;;;;;;4862845;29;20187;-80
2023/08/22 12:15:35;;;;;;;5.77;4.63;;;28.80;99.90;;;;;;4863461;29;20557;-80
2023/08/22 12:18:01;;;;;;;7.07;4.70;;;28.90;99.90;;;;;;4863036;29;20482;-80
2023/08/22 12:20:27;;;;;;;7.33;4.27;;;28.80;99.90;;;;;;4863189;29;20425;-80
2023/08/22 12:22:53;;;;;;;6.07;4.33;;;28.80;99.90;;;;;;4862668;29;20422;-81
2023/08/22 12:25:19;;;;;;;4.90;3.60;;;28.40;99.90;;;;;;4863047;29;20188;-80
2023/08/22 12:27:45;;;;;;;6.50;3.50;;;28.40;99.90;;;;;;4862765;29;20185;-84
2023/08/22 12:30:11;;;;;;;7.83;4.10;;;28.50;99.90;;;;;;4863103;29;20428;-80
2023/08/22 12:32:37;;;;;;;12.50;4.30;;;28.40;99.90;;;;;;4862869;29;20433;-80
2023/08/22 12:35:03;;;;;;;7.30;2.87;;;27.90;99.90;;;;;;4862684;29;20195;-81
2023/08/22 12:37:29;;;;;;;7.87;2.90;;;28.00;99.90;;;;;;4862929;29;20188;-81